Aérodrome :
LOGIN :

S'inscrire | Disclaimer

   EN    FR    IT 

 










Légende :    VFR   VFR Marginal   IFR   IFR Intensif   IFR Très Intensif
Visi : 
Plafond : 
>= 8 km
>= 3000ft
5 à 8 km
1000 à 3000 ft
1500m à 5 km
500 à 1000 ft
800 à 1500m
200 à 500 ft
< 800m
< 200 ft
Symboles :   Orages  Brouillard  Fortes neiges  Fortes précipitations  Vent > 20 kt
SIGMETs :   Divers  Orages  Givrage  Turbulence  Onde Orograph.  Cendres Volcan.







- Altitude de l'aérodrome : 27 ft
- Code IATA : PMI


LEPA - Palma de Mallorca

DERNIER METAR :
  • 191630Z 08017G28KT 050V120 9000 FEW016 BKN020 17/13 Q1017 NOSIG

METARs EXPIRÉS :
  • 191600Z 08019G29KT 050V110 9000 FEW016 BKN020 17/13 Q1017 NOSIG
  • 191530Z 08014G24KT 050V140 9000 FEW016 BKN020 17/13 Q1017 NOSIG
  • 191500Z 08021KT 050V110 9000 FEW016 BKN020 17/13 Q1017 NOSIG
  • 191430Z 08014KT 050V120 9000 FEW016 BKN020 17/13 Q1017 NOSIG
  • 191400Z 08022G32KT 9000 FEW016 BKN020 17/13 Q1016 NOSIG

TAF TAF LEPA
Valide du 19 à 12h jusqu'au 20 à 12h UTC


191100Z 1912/2012 07016KT 9999 FEW020 TX21/1912Z TN13/2006Z
TEMPO 1912/2012 06022G35KT
Pas de NOTAMs connus pour ce terrain.
1 SIGMET publié pour la FIR Barcelona (LECB) :
 
Turbulence forte
LECB SIGMET 1 VALID 191513/191800 LEVA
LECB BARCELONA UIR SEV TURB OBS AT 1513Z E OF LINE N4003 W00051 - N3839 W00059 FL300/350 STNR NC=



MET'MAP, la Météo Aéronautique d'un coup d'oeil ! - Copyright ORBIFLY Décembre 2007 - Disclaimer

ORBIFLY MET'MAP TEAM :

Programmation & Développement : Alexandra Zaïnal
Conception & Développement : Baudouin d'Aumeries
Co-Programmation & Développement : Marc-Olivier Méhu
Soutien technique & logistique : Manuel Goepfert

Contact : metmap@orbifly.com




SOURCES & CREDITS :

   NOAA